createdAt,value
2022-12-31T00:01:34.448Z,10.90
2022-12-31T00:04:01.046Z,10.90
2022-12-31T00:06:33.559Z,11.00
2022-12-31T00:09:01.912Z,10.90
2022-12-31T00:11:29.911Z,10.90
2022-12-31T00:13:57.466Z,10.90
2022-12-31T00:16:32.879Z,10.90
2022-12-31T00:19:00.555Z,11.00
2022-12-31T00:21:32.046Z,11.10
2022-12-31T00:23:58.893Z,11.20
2022-12-31T00:26:28.182Z,11.20
2022-12-31T00:28:56.247Z,11.10
2022-12-31T00:31:29.166Z,11.20
2022-12-31T00:33:56.746Z,11.20
2022-12-31T00:36:35.204Z,11.30
2022-12-31T00:39:04.941Z,11.40
2022-12-31T00:41:31.779Z,11.40
2022-12-31T00:43:58.711Z,11.40
2022-12-31T00:46:25.652Z,11.50
2022-12-31T00:48:52.913Z,11.50
2022-12-31T00:51:22.333Z,11.40
2022-12-31T00:53:49.060Z,11.40
2022-12-31T00:56:22.080Z,11.50
2022-12-31T00:58:49.529Z,11.50
2022-12-31T01:01:20.474Z,11.50
2022-12-31T01:03:48.461Z,11.50
2022-12-31T01:06:15.479Z,11.60
2022-12-31T01:08:42.045Z,11.50
2022-12-31T01:11:11.599Z,11.50
2022-12-31T01:13:38.143Z,11.50
2022-12-31T01:16:09.542Z,11.60
2022-12-31T01:18:36.512Z,11.60
2022-12-31T01:21:06.066Z,11.70
2022-12-31T01:23:32.784Z,11.70
2022-12-31T01:26:01.218Z,11.70
2022-12-31T01:28:28.292Z,11.70
2022-12-31T01:30:55.630Z,11.80
2022-12-31T01:33:22.594Z,11.80
2022-12-31T01:35:49.477Z,11.80
2022-12-31T01:38:16.414Z,11.80
2022-12-31T01:40:43.150Z,11.80
2022-12-31T01:43:16.890Z,11.80
2022-12-31T01:45:46.552Z,11.80
2022-12-31T01:48:16.971Z,11.70
2022-12-31T01:50:44.957Z,11.80
2022-12-31T01:53:12.516Z,11.80
2022-12-31T01:55:47.589Z,11.90
2022-12-31T01:58:18.324Z,11.90
2022-12-31T02:00:45.583Z,11.90
2022-12-31T02:03:13.154Z,12.00
2022-12-31T02:05:51.416Z,12.10
2022-12-31T02:08:18.320Z,12.10
2022-12-31T02:10:44.865Z,12.00
2022-12-31T02:13:11.719Z,12.10
2022-12-31T02:15:47.646Z,12.00
2022-12-31T02:18:17.271Z,12.00
2022-12-31T02:21:21.619Z,12.00
2022-12-31T02:24:31.996Z,12.00
2022-12-31T02:27:08.718Z,12.10
2022-12-31T02:29:46.315Z,12.10
2022-12-31T02:32:42.189Z,12.10
2022-12-31T02:35:24.275Z,12.00
2022-12-31T02:37:56.721Z,12.10
2022-12-31T02:40:23.688Z,12.20
2022-12-31T02:42:55.234Z,12.30
2022-12-31T02:45:29.469Z,12.30
2022-12-31T02:48:05.819Z,12.40
2022-12-31T02:50:43.283Z,12.60
2022-12-31T02:53:57.559Z,12.60
2022-12-31T02:56:39.274Z,12.60
2022-12-31T02:59:23.858Z,12.70
2022-12-31T03:02:03.861Z,12.80
2022-12-31T03:04:32.382Z,12.80
2022-12-31T03:07:06.314Z,12.70
2022-12-31T03:09:34.159Z,12.70
2022-12-31T03:12:01.587Z,12.60
2022-12-31T03:14:28.158Z,12.70
2022-12-31T03:16:54.686Z,12.70
2022-12-31T03:19:21.257Z,12.70
2022-12-31T03:21:47.804Z,12.70
2022-12-31T03:24:14.348Z,12.70
2022-12-31T03:26:40.950Z,12.70
2022-12-31T03:29:07.521Z,12.70
2022-12-31T03:31:34.097Z,12.80
2022-12-31T03:34:00.669Z,12.80
2022-12-31T03:36:27.209Z,12.70
2022-12-31T03:38:53.784Z,12.70
2022-12-31T03:41:20.380Z,12.60
2022-12-31T03:43:46.921Z,12.60
2022-12-31T03:46:13.528Z,12.70
2022-12-31T03:48:40.085Z,12.70
2022-12-31T03:51:06.660Z,12.80
2022-12-31T03:53:33.207Z,12.90
2022-12-31T03:55:59.753Z,12.90
2022-12-31T03:58:26.407Z,12.90
2022-12-31T04:00:52.969Z,13.00
2022-12-31T04:03:19.640Z,13.10
2022-12-31T04:05:53.139Z,13.20
2022-12-31T04:08:19.706Z,13.10
2022-12-31T04:10:46.315Z,13.10
2022-12-31T04:13:12.869Z,13.20
2022-12-31T04:15:39.428Z,13.10
2022-12-31T04:18:06.018Z,13.10
2022-12-31T04:20:32.625Z,13.00
2022-12-31T04:22:59.178Z,13.10
2022-12-31T04:25:25.726Z,13.10
2022-12-31T04:27:52.288Z,13.10
2022-12-31T04:30:18.844Z,13.10
2022-12-31T04:32:45.406Z,13.20
2022-12-31T04:35:12.001Z,13.20
2022-12-31T04:37:38.934Z,13.20
2022-12-31T04:40:07.168Z,13.20
2022-12-31T04:42:34.878Z,13.10
2022-12-31T04:45:01.467Z,13.10
2022-12-31T04:47:28.074Z,13.20
2022-12-31T04:49:54.744Z,13.20
2022-12-31T04:52:23.108Z,13.20
2022-12-31T04:54:49.946Z,13.20
2022-12-31T04:57:16.596Z,13.20
2022-12-31T04:59:43.328Z,13.20
2022-12-31T05:02:10.009Z,13.10
2022-12-31T05:04:36.674Z,13.10
2022-12-31T05:07:03.365Z,13.10
2022-12-31T05:09:29.939Z,13.20
2022-12-31T05:11:56.523Z,13.10
2022-12-31T05:14:23.096Z,13.10
2022-12-31T05:16:49.847Z,13.00
2022-12-31T05:19:16.682Z,13.20
2022-12-31T05:21:43.506Z,13.20
2022-12-31T05:24:10.063Z,13.30
2022-12-31T05:26:36.690Z,13.30
2022-12-31T05:29:03.276Z,13.30
2022-12-31T05:31:30.023Z,13.30
2022-12-31T05:33:56.774Z,13.30
2022-12-31T05:36:23.329Z,13.20
2022-12-31T05:38:50.063Z,13.20
2022-12-31T05:41:16.600Z,13.20
2022-12-31T05:43:43.153Z,13.20
2022-12-31T05:46:09.770Z,13.20
2022-12-31T05:48:36.387Z,13.10
2022-12-31T05:51:02.988Z,13.10
2022-12-31T05:53:29.585Z,13.10
2022-12-31T05:55:56.156Z,13.00
2022-12-31T05:58:22.716Z,13.00
2022-12-31T06:00:49.288Z,13.10
2022-12-31T06:03:15.981Z,13.10
2022-12-31T06:05:43.106Z,13.20
2022-12-31T06:08:11.349Z,13.20
2022-12-31T06:10:38.856Z,13.20
2022-12-31T06:13:05.819Z,13.20
2022-12-31T06:15:32.518Z,13.20
2022-12-31T06:17:59.165Z,13.30
2022-12-31T06:20:25.897Z,13.20
2022-12-31T06:22:52.587Z,13.30
2022-12-31T06:25:19.192Z,13.30
2022-12-31T06:27:45.785Z,13.30
2022-12-31T06:30:13.000Z,13.40
2022-12-31T06:32:39.579Z,13.30
2022-12-31T06:35:06.971Z,13.30
2022-12-31T06:37:33.533Z,13.30
2022-12-31T06:40:00.628Z,13.30
2022-12-31T06:42:31.023Z,13.30
2022-12-31T06:45:00.541Z,13.20
2022-12-31T06:47:27.131Z,13.20
2022-12-31T06:49:53.682Z,13.30
2022-12-31T06:52:21.167Z,13.30
2022-12-31T06:54:48.186Z,13.30
2022-12-31T06:57:14.973Z,13.30
2022-12-31T06:59:42.107Z,13.30
2022-12-31T07:02:53.197Z,13.30
2022-12-31T07:05:37.175Z,13.30
2022-12-31T07:08:16.038Z,13.20
2022-12-31T07:10:45.637Z,13.20
2022-12-31T07:13:22.043Z,13.10
2022-12-31T07:15:54.371Z,13.20
2022-12-31T07:18:29.603Z,13.20
2022-12-31T07:20:56.439Z,13.20
2022-12-31T07:23:23.329Z,13.20
2022-12-31T07:26:04.160Z,13.10
2022-12-31T07:28:33.491Z,13.10
2022-12-31T07:31:11.865Z,13.20
2022-12-31T07:33:58.757Z,13.20
2022-12-31T07:37:00.778Z,13.20
2022-12-31T07:39:50.703Z,13.30
2022-12-31T07:42:46.363Z,13.30
2022-12-31T07:45:26.921Z,13.20
2022-12-31T07:47:58.905Z,13.20
2022-12-31T07:50:29.111Z,13.20
2022-12-31T07:52:55.910Z,13.10
2022-12-31T07:55:22.548Z,13.10
2022-12-31T07:58:01.002Z,13.10
2022-12-31T08:00:30.967Z,13.00
2022-12-31T08:03:11.031Z,13.00
2022-12-31T08:05:57.082Z,13.00
2022-12-31T08:08:42.641Z,13.00
2022-12-31T08:11:32.563Z,13.00
2022-12-31T08:14:01.683Z,13.00
2022-12-31T08:16:29.132Z,12.90
2022-12-31T08:18:56.276Z,12.90
2022-12-31T08:21:45.700Z,12.90
2022-12-31T08:24:24.095Z,12.90
2022-12-31T08:27:04.975Z,12.90
2022-12-31T08:29:37.813Z,12.90
2022-12-31T08:32:21.689Z,12.80
2022-12-31T08:35:00.324Z,12.80
2022-12-31T08:37:36.737Z,12.80
2022-12-31T08:40:06.090Z,12.80
2022-12-31T08:42:59.413Z,12.90
2022-12-31T08:45:38.961Z,12.90
2022-12-31T08:48:30.080Z,12.90
2022-12-31T08:50:57.292Z,12.90
2022-12-31T08:53:24.297Z,12.90
2022-12-31T08:56:01.083Z,12.90
2022-12-31T08:58:45.222Z,13.00
2022-12-31T09:01:14.527Z,13.00
2022-12-31T09:04:05.821Z,13.00
2022-12-31T09:06:44.159Z,13.00
2022-12-31T09:09:44.387Z,13.00
2022-12-31T09:12:29.840Z,12.90
2022-12-31T09:15:06.246Z,13.00
2022-12-31T09:17:46.072Z,13.00
2022-12-31T09:20:43.036Z,13.00
2022-12-31T09:23:11.835Z,13.10
2022-12-31T09:25:47.078Z,13.10
2022-12-31T09:28:30.743Z,13.10
2022-12-31T09:31:17.156Z,13.10
2022-12-31T09:33:52.994Z,13.20
2022-12-31T09:36:28.440Z,13.20
2022-12-31T09:39:24.430Z,13.20
2022-12-31T09:42:28.712Z,13.30
2022-12-31T09:45:31.275Z,13.40
2022-12-31T09:48:29.990Z,13.50
2022-12-31T09:51:17.139Z,13.50
2022-12-31T09:53:53.111Z,13.60
2022-12-31T09:56:59.275Z,13.60
2022-12-31T09:59:37.324Z,13.70
2022-12-31T10:02:41.567Z,13.70
2022-12-31T10:05:35.599Z,13.80
2022-12-31T10:08:09.782Z,13.80
2022-12-31T10:10:54.811Z,13.90
2022-12-31T10:13:42.622Z,13.90
2022-12-31T10:16:30.472Z,13.90
2022-12-31T10:19:02.754Z,14.00
2022-12-31T10:21:47.670Z,14.00
2022-12-31T10:24:20.054Z,14.00
2022-12-31T10:26:53.566Z,14.00
2022-12-31T10:29:29.443Z,14.00
2022-12-31T10:32:14.193Z,14.00
2022-12-31T10:35:19.051Z,14.10
2022-12-31T10:37:54.863Z,14.20
2022-12-31T10:40:41.889Z,14.40
2022-12-31T10:43:52.535Z,14.50
2022-12-31T10:46:57.364Z,14.50
2022-12-31T10:49:38.836Z,14.60
2022-12-31T10:52:49.475Z,14.60
2022-12-31T10:55:38.313Z,14.60
2022-12-31T10:58:41.538Z,14.60
2022-12-31T11:01:26.705Z,14.60
2022-12-31T11:04:43.395Z,14.70
2022-12-31T11:07:32.367Z,14.60
2022-12-31T11:10:25.299Z,14.60
2022-12-31T11:13:06.837Z,14.70
2022-12-31T11:16:02.891Z,14.70
2022-12-31T11:18:41.438Z,14.70
2022-12-31T11:21:34.295Z,14.90
2022-12-31T11:24:24.840Z,15.10
2022-12-31T11:27:04.896Z,15.30
2022-12-31T11:29:37.488Z,15.50
2022-12-31T11:32:41.813Z,15.80
2022-12-31T11:35:43.139Z,15.90
2022-12-31T11:38:22.782Z,16.10
2022-12-31T11:41:08.274Z,16.30
2022-12-31T11:43:49.380Z,16.50
2022-12-31T11:46:43.555Z,16.70
2022-12-31T11:49:24.274Z,16.80
2022-12-31T11:52:21.627Z,17.00
2022-12-31T11:55:32.735Z,17.20
2022-12-31T11:58:08.587Z,17.40
2022-12-31T12:00:35.498Z,17.60
2022-12-31T12:03:07.215Z,17.70
2022-12-31T12:05:35.421Z,17.90
2022-12-31T12:08:02.049Z,18.00
2022-12-31T12:10:36.491Z,18.30
2022-12-31T12:13:13.551Z,18.50
2022-12-31T12:15:44.611Z,18.70
2022-12-31T12:18:38.966Z,18.70
2022-12-31T12:21:12.496Z,18.70
2022-12-31T12:23:40.122Z,18.80
2022-12-31T12:26:07.542Z,18.80
2022-12-31T12:28:51.971Z,18.70
2022-12-31T12:31:22.751Z,18.80
2022-12-31T12:33:50.800Z,18.70
2022-12-31T12:36:22.049Z,18.70
2022-12-31T12:38:59.639Z,18.70
2022-12-31T12:41:26.242Z,18.60
2022-12-31T12:44:08.060Z,18.50
2022-12-31T12:46:48.970Z,18.50
2022-12-31T12:49:26.780Z,18.40
2022-12-31T12:51:56.133Z,18.30
2022-12-31T12:54:56.489Z,18.30
2022-12-31T12:57:41.910Z,18.20
2022-12-31T13:00:18.958Z,18.20
2022-12-31T13:03:16.280Z,18.10
2022-12-31T13:06:08.196Z,17.90
2022-12-31T13:09:06.124Z,17.80
2022-12-31T13:12:02.290Z,17.70
2022-12-31T13:15:09.048Z,17.60
2022-12-31T13:17:55.070Z,17.50
2022-12-31T13:20:29.958Z,17.40
2022-12-31T13:23:12.500Z,17.30
2022-12-31T13:25:51.125Z,17.20
2022-12-31T13:28:19.080Z,17.20
2022-12-31T13:31:09.090Z,17.20
2022-12-31T13:33:46.301Z,17.10
2022-12-31T13:36:25.167Z,17.10
2022-12-31T13:38:54.278Z,17.00
2022-12-31T13:41:38.619Z,17.00
2022-12-31T13:44:23.958Z,17.00
2022-12-31T13:47:00.474Z,16.90
2022-12-31T13:49:52.603Z,16.90
2022-12-31T13:52:50.881Z,16.80
2022-12-31T13:55:23.665Z,16.70
2022-12-31T13:58:05.178Z,16.70
2022-12-31T14:00:47.317Z,16.60
2022-12-31T14:03:21.907Z,16.60
2022-12-31T14:06:22.395Z,16.50
2022-12-31T14:08:49.035Z,16.50
2022-12-31T14:11:47.779Z,16.40
2022-12-31T14:14:35.922Z,16.40
2022-12-31T14:17:56.432Z,16.30
2022-12-31T14:20:41.900Z,16.20
2022-12-31T14:23:37.044Z,16.10
2022-12-31T14:26:19.312Z,16.00
2022-12-31T14:29:07.120Z,15.90
2022-12-31T14:31:49.176Z,15.80
2022-12-31T14:34:23.642Z,15.70
2022-12-31T14:36:59.075Z,15.50
2022-12-31T14:39:36.291Z,15.40
2022-12-31T14:42:22.259Z,15.40
2022-12-31T14:45:27.158Z,15.30
2022-12-31T14:48:09.543Z,15.30
2022-12-31T14:50:36.449Z,15.30
2022-12-31T14:53:02.989Z,15.10
2022-12-31T14:55:35.056Z,15.10
2022-12-31T14:58:28.346Z,15.10
2022-12-31T15:00:57.957Z,15.00
2022-12-31T15:03:33.588Z,14.90
2022-12-31T15:06:38.094Z,14.80
2022-12-31T15:09:36.858Z,14.70
2022-12-31T15:12:23.124Z,14.60
2022-12-31T15:15:00.024Z,14.40
2022-12-31T15:17:36.095Z,14.30
2022-12-31T15:20:14.988Z,14.00
2022-12-31T15:22:51.313Z,13.80
2022-12-31T15:25:39.985Z,13.80
2022-12-31T15:28:24.022Z,13.70
2022-12-31T15:30:51.433Z,13.70
2022-12-31T15:33:32.132Z,13.50
2022-12-31T15:36:20.519Z,13.40
2022-12-31T15:38:48.803Z,13.30
2022-12-31T15:41:37.801Z,13.20
2022-12-31T15:44:25.989Z,13.10
2022-12-31T15:47:00.366Z,13.00
2022-12-31T15:49:35.739Z,12.90
2022-12-31T15:52:07.135Z,12.80
2022-12-31T15:54:38.510Z,12.70
2022-12-31T15:57:09.399Z,12.60
2022-12-31T15:59:36.266Z,12.50
2022-12-31T16:02:02.999Z,12.50
2022-12-31T16:04:30.980Z,12.40
2022-12-31T16:07:02.921Z,12.40
2022-12-31T16:09:32.113Z,12.30
2022-12-31T16:12:00.043Z,12.30
2022-12-31T16:14:37.049Z,12.30
2022-12-31T16:17:04.985Z,12.30
2022-12-31T16:19:42.015Z,12.30
2022-12-31T16:22:15.250Z,12.30
2022-12-31T16:25:19.536Z,12.20
2022-12-31T16:27:30.048Z,12.20
2022-12-31T16:30:01.934Z,12.10
2022-12-31T16:32:35.608Z,12.00
2022-12-31T16:35:02.191Z,11.90
2022-12-31T16:37:28.764Z,11.90
2022-12-31T16:39:58.319Z,11.90
2022-12-31T16:42:28.988Z,11.80
2022-12-31T16:44:56.951Z,11.80
2022-12-31T16:47:37.209Z,11.70
2022-12-31T16:50:20.040Z,11.70
2022-12-31T16:52:51.958Z,11.50
2022-12-31T16:55:24.781Z,11.50
2022-12-31T16:57:54.820Z,11.40
2022-12-31T17:00:23.966Z,11.30
2022-12-31T17:03:04.806Z,11.30
2022-12-31T17:05:31.422Z,11.40
2022-12-31T17:07:58.214Z,11.30
2022-12-31T17:10:35.251Z,11.30
2022-12-31T17:13:27.975Z,11.20
2022-12-31T17:15:56.982Z,11.20
2022-12-31T17:18:26.730Z,11.20
2022-12-31T17:20:55.058Z,11.20
2022-12-31T17:23:31.581Z,11.20
2022-12-31T17:26:25.730Z,11.20
2022-12-31T17:28:55.056Z,11.20
2022-12-31T17:31:29.566Z,11.20
2022-12-31T17:34:14.312Z,11.20
2022-12-31T17:36:52.556Z,11.20
2022-12-31T17:39:22.356Z,11.20
2022-12-31T17:41:51.783Z,11.10
2022-12-31T17:44:25.098Z,11.00
2022-12-31T17:46:52.460Z,10.90
2022-12-31T17:49:24.266Z,10.80
2022-12-31T17:51:50.818Z,10.80
2022-12-31T17:54:18.791Z,10.70
2022-12-31T17:56:45.930Z,10.70
2022-12-31T17:59:26.391Z,10.70
2022-12-31T18:01:53.111Z,10.60
2022-12-31T18:04:19.801Z,10.50
2022-12-31T18:06:46.456Z,10.50
2022-12-31T18:09:13.019Z,10.50
2022-12-31T18:11:40.594Z,10.40
2022-12-31T18:14:07.345Z,10.50
2022-12-31T18:16:34.348Z,10.40
2022-12-31T18:19:02.373Z,10.40
2022-12-31T18:21:33.989Z,10.30
2022-12-31T18:26:29.331Z,10.20
2022-12-31T18:28:58.076Z,10.10
2022-12-31T18:31:29.876Z,10.10
2022-12-31T18:33:58.088Z,10.10
2022-12-31T18:36:28.933Z,10.00
2022-12-31T18:38:55.523Z,10.00
2022-12-31T18:41:30.882Z,9.90
2022-12-31T18:43:57.522Z,9.90
2022-12-31T18:46:24.942Z,9.80
2022-12-31T18:48:51.554Z,9.80
2022-12-31T18:51:31.056Z,9.80
2022-12-31T18:53:59.308Z,9.80
2022-12-31T18:56:25.861Z,9.80
2022-12-31T18:58:52.463Z,9.90
2022-12-31T19:01:29.487Z,9.80
2022-12-31T19:03:59.021Z,9.80
2022-12-31T19:06:26.354Z,9.80
2022-12-31T19:08:52.984Z,9.80
2022-12-31T19:11:20.073Z,9.80
2022-12-31T19:13:47.184Z,9.70
2022-12-31T19:16:14.162Z,9.60
2022-12-31T19:18:41.733Z,9.70
2022-12-31T19:21:21.401Z,9.80
2022-12-31T19:23:48.748Z,9.80
2022-12-31T19:26:20.967Z,9.80
2022-12-31T19:28:48.912Z,9.80
2022-12-31T19:31:15.944Z,9.90
2022-12-31T19:33:43.373Z,9.90
2022-12-31T19:36:18.175Z,10.20
2022-12-31T19:38:45.188Z,10.40
2022-12-31T19:41:17.477Z,10.60
2022-12-31T19:43:44.714Z,10.70
2022-12-31T19:46:13.745Z,10.90
2022-12-31T19:48:40.392Z,11.00
2022-12-31T19:51:14.687Z,11.00
2022-12-31T19:53:41.283Z,11.00
2022-12-31T19:56:15.310Z,10.90
2022-12-31T19:58:41.920Z,10.80
2022-12-31T20:01:08.973Z,10.70
2022-12-31T20:03:35.804Z,10.70
2022-12-31T20:06:05.237Z,10.60
2022-12-31T20:08:32.338Z,10.50
2022-12-31T20:11:06.406Z,10.50
2022-12-31T20:13:34.977Z,10.40
2022-12-31T20:16:01.504Z,10.40
2022-12-31T20:18:28.055Z,10.40
2022-12-31T20:20:55.971Z,10.40
2022-12-31T20:23:22.871Z,10.50
2022-12-31T20:25:59.854Z,10.60
2022-12-31T20:28:26.903Z,10.80
2022-12-31T20:30:53.605Z,10.70
2022-12-31T20:33:20.368Z,10.70
2022-12-31T20:35:46.911Z,10.80
2022-12-31T20:38:13.459Z,10.80
2022-12-31T20:40:46.150Z,10.80
2022-12-31T20:43:13.391Z,10.80
2022-12-31T20:45:41.092Z,10.80
2022-12-31T20:48:07.764Z,10.90
2022-12-31T20:50:34.346Z,10.80
2022-12-31T20:53:01.034Z,10.80
2022-12-31T20:55:27.650Z,10.90
2022-12-31T20:57:54.224Z,11.00
2022-12-31T21:00:20.932Z,11.10
2022-12-31T21:02:56.368Z,11.00
2022-12-31T21:05:24.654Z,11.00
2022-12-31T21:07:52.081Z,10.90
2022-12-31T21:10:18.670Z,10.80
2022-12-31T21:12:45.236Z,10.80
2022-12-31T21:15:13.405Z,10.80
2022-12-31T21:17:40.203Z,10.80
2022-12-31T21:20:07.531Z,10.80
2022-12-31T21:22:34.154Z,10.70
2022-12-31T21:25:01.983Z,10.70
2022-12-31T21:27:29.338Z,10.70
2022-12-31T21:32:43.159Z,10.50
2022-12-31T21:38:00.840Z,10.40
2022-12-31T21:40:28.075Z,10.40
2022-12-31T21:42:54.761Z,10.30
2022-12-31T21:45:21.325Z,10.30
2022-12-31T21:47:48.045Z,10.30
2022-12-31T21:50:14.814Z,10.30
2022-12-31T21:52:41.372Z,10.30
2022-12-31T21:55:10.952Z,10.20
2022-12-31T21:58:07.063Z,10.20
2022-12-31T22:00:41.744Z,10.20
2022-12-31T22:03:11.706Z,10.20
2022-12-31T22:05:44.822Z,10.10
2022-12-31T22:08:11.361Z,10.10
2022-12-31T22:10:42.794Z,10.00
2022-12-31T22:13:14.815Z,10.00
2022-12-31T22:15:45.969Z,10.00
2022-12-31T22:18:16.334Z,9.90
2022-12-31T22:20:42.987Z,9.90
2022-12-31T22:23:09.640Z,9.90
2022-12-31T22:25:37.256Z,9.80
2022-12-31T22:28:36.742Z,9.80
2022-12-31T22:30:51.906Z,9.80
2022-12-31T22:33:18.652Z,9.70
2022-12-31T22:35:45.281Z,9.70
2022-12-31T22:38:12.371Z,9.60
2022-12-31T22:40:39.118Z,9.60
2022-12-31T22:43:05.654Z,9.60
2022-12-31T22:45:32.200Z,9.50
2022-12-31T22:47:58.765Z,9.50
2022-12-31T22:50:25.349Z,9.50
2022-12-31T22:52:51.937Z,9.50
2022-12-31T22:55:18.500Z,9.40
2022-12-31T22:57:45.047Z,9.40
2022-12-31T23:00:13.931Z,9.30
2022-12-31T23:02:42.301Z,9.30
2022-12-31T23:05:14.775Z,9.30
2022-12-31T23:07:42.979Z,9.30
2022-12-31T23:10:10.881Z,9.30
2022-12-31T23:12:37.419Z,9.30
2022-12-31T23:15:04.382Z,9.30
2022-12-31T23:17:32.162Z,9.30
2022-12-31T23:20:00.132Z,9.30
2022-12-31T23:22:26.706Z,9.20
2022-12-31T23:24:53.288Z,9.20
2022-12-31T23:27:19.870Z,9.20
2022-12-31T23:29:47.681Z,9.20
2022-12-31T23:32:18.226Z,9.20
2022-12-31T23:34:45.703Z,9.10
2022-12-31T23:37:13.643Z,9.20
2022-12-31T23:39:40.826Z,9.20
2022-12-31T23:42:07.466Z,9.10
2022-12-31T23:44:34.093Z,9.20
2022-12-31T23:47:00.714Z,9.20
2022-12-31T23:49:27.431Z,9.20
2022-12-31T23:51:54.167Z,9.20
2022-12-31T23:54:20.760Z,9.20
2022-12-31T23:56:47.299Z,9.20
2022-12-31T23:59:13.857Z,9.20
